Time;durP1;ratioP1;P1;durP2;ratioP2;P2;SDS_P1;SDS_P2;PMS_P1;PMS_P2;Temp;Humidity;BMP_temperature;BMP_pressure;BME280_temperature;BME280_humidity;BME280_pressure;Samples;Min_cycle;Max_cycle;Signal;HPM_P1;HPM_P2
2021/08/01 00:02:17;;;;;;;0.70;0.70;;;15.90;99.90;;;;;;5033810;28;20526;-81
2021/08/01 00:04:43;;;;;;;0.50;0.50;;;15.80;99.90;;;;;;5033152;28;20800;-80
2021/08/01 00:07:10;;;;;;;0.90;0.73;;;15.80;99.90;;;;;;5033463;28;20500;-80
2021/08/01 00:09:37;;;;;;;0.73;0.70;;;15.70;99.90;;;;;;5033560;28;20482;-80
2021/08/01 00:12:04;;;;;;;1.13;0.60;;;15.70;99.90;;;;;;5033488;28;20451;-80
2021/08/01 00:14:31;;;;;;;0.93;0.70;;;15.70;99.90;;;;;;5033561;28;20445;-80
2021/08/01 00:17:00;;;;;;;0.60;0.60;;;15.70;99.90;;;;;;5033509;28;20451;-80
2021/08/01 00:19:28;;;;;;;0.60;0.60;;;15.60;99.90;;;;;;5033509;28;20457;-80
2021/08/01 00:21:55;;;;;;;1.53;0.60;;;15.60;99.90;;;;;;5033355;28;20482;-80
2021/08/01 00:24:21;;;;;;;0.70;0.70;;;15.60;99.90;;;;;;5033762;28;20926;-81
2021/08/01 00:26:48;;;;;;;0.57;0.57;;;15.60;99.90;;;;;;5033160;28;20453;-81
2021/08/01 00:29:15;;;;;;;0.77;0.77;;;15.60;99.90;;;;;;5033007;28;20482;-81
2021/08/01 00:31:42;;;;;;;0.77;0.77;;;15.50;99.90;;;;;;5033269;28;20477;-81
2021/08/01 00:34:08;;;;;;;1.40;0.77;;;15.50;99.90;;;;;;5033383;28;20446;-81
2021/08/01 00:36:36;;;;;;;0.50;0.50;;;15.50;99.90;;;;;;5033034;28;20441;-81
2021/08/01 00:39:03;;;;;;;0.73;0.70;;;15.50;99.90;;;;;;5033327;28;20446;-81
2021/08/01 00:41:30;;;;;;;0.87;0.80;;;15.50;99.90;;;;;;5032887;28;20482;-81
2021/08/01 00:43:57;;;;;;;0.70;0.60;;;15.50;99.90;;;;;;5032967;28;20435;-81
2021/08/01 00:46:23;;;;;;;1.17;1.07;;;15.40;99.90;;;;;;5033251;28;20942;-81
2021/08/01 00:48:50;;;;;;;1.07;0.93;;;15.40;99.90;;;;;;5032919;28;20461;-81
2021/08/01 00:51:17;;;;;;;0.50;0.50;;;15.40;99.90;;;;;;5033013;28;20490;-80
2021/08/01 00:53:45;;;;;;;0.83;0.60;;;15.40;99.90;;;;;;5032914;28;20457;-80
2021/08/01 00:56:12;;;;;;;0.50;0.50;;;15.50;99.90;;;;;;5033402;28;20431;-80
2021/08/01 00:58:39;;;;;;;0.80;0.70;;;15.40;99.90;;;;;;5032810;28;20958;-80
2021/08/01 01:01:07;;;;;;;1.37;1.27;;;15.40;99.90;;;;;;5033004;28;20474;-80
2021/08/01 01:03:43;;;;;;;4.93;1.00;;;15.40;99.90;;;;;;5033069;28;20478;-81
2021/08/01 01:06:19;;;;;;;1.40;0.77;;;15.40;99.90;;;;;;5033065;28;20450;-81
2021/08/01 01:08:53;;;;;;;0.60;0.60;;;15.30;99.90;;;;;;5032776;28;20435;-81
2021/08/01 01:11:21;;;;;;;0.87;0.87;;;15.30;99.90;;;;;;5032683;28;20858;-81
2021/08/01 01:13:52;;;;;;;0.67;0.50;;;15.40;99.90;;;;;;5032670;28;20950;-81
2021/08/01 01:16:19;;;;;;;0.80;0.80;;;15.30;99.90;;;;;;5034183;28;20439;-81
2021/08/01 01:18:49;;;;;;;0.87;0.70;;;15.30;99.90;;;;;;5036770;28;20447;-81
2021/08/01 01:21:47;;;;;;;2.70;1.13;;;15.30;99.90;;;;;;5036400;28;20462;-81
2021/08/01 01:24:18;;;;;;;2.07;0.70;;;15.30;99.90;;;;;;5036735;28;20426;-81
2021/08/01 01:26:53;;;;;;;1.53;0.83;;;15.30;99.90;;;;;;5036496;28;20450;-80
2021/08/01 01:29:24;;;;;;;0.70;0.70;;;15.30;99.90;;;;;;5036281;28;20784;-81
2021/08/01 01:32:01;;;;;;;1.10;0.60;;;15.30;99.90;;;;;;5036211;28;20993;-80
2021/08/01 01:34:34;;;;;;;1.13;0.70;;;15.20;99.90;;;;;;5036927;28;20450;-80
2021/08/01 01:37:04;;;;;;;0.60;0.60;;;15.20;99.90;;;;;;5036459;28;20439;-80
2021/08/01 01:39:32;;;;;;;0.87;0.60;;;15.20;99.90;;;;;;5036331;28;20820;-81
2021/08/01 01:42:01;;;;;;;0.70;0.50;;;15.10;99.90;;;;;;5036004;28;20469;-82
2021/08/01 01:44:29;;;;;;;0.97;0.97;;;15.10;99.90;;;;;;5036020;28;20449;-80
2021/08/01 01:46:57;;;;;;;1.40;1.10;;;15.10;99.90;;;;;;5036245;28;20455;-81
2021/08/01 01:49:25;;;;;;;0.50;0.50;;;15.10;99.90;;;;;;5036357;28;20533;-81
2021/08/01 01:51:54;;;;;;;1.37;0.67;;;15.00;99.90;;;;;;5036064;28;20466;-80
2021/08/01 01:54:22;;;;;;;0.67;0.50;;;15.00;99.90;;;;;;5035651;28;20978;-80
2021/08/01 01:56:51;;;;;;;0.80;0.80;;;15.00;99.90;;;;;;5036307;28;20454;-80
2021/08/01 01:59:19;;;;;;;1.27;0.47;;;14.90;99.90;;;;;;5036011;28;20478;-80
2021/08/01 02:01:48;;;;;;;0.80;0.73;;;14.90;99.90;;;;;;5035949;28;20471;-80
2021/08/01 02:04:15;;;;;;;0.60;0.60;;;14.90;99.90;;;;;;5035949;28;20446;-80
2021/08/01 02:06:41;;;;;;;0.67;0.50;;;14.90;99.90;;;;;;5035937;28;20435;-79
2021/08/01 02:09:14;;;;;;;0.60;0.60;;;14.90;99.90;;;;;;5035865;28;20458;-80
2021/08/01 02:11:47;;;;;;;0.67;0.50;;;14.90;99.90;;;;;;5035455;28;20478;-80
2021/08/01 02:14:18;;;;;;;1.20;0.67;;;14.90;99.90;;;;;;5035782;28;20431;-80
2021/08/01 02:16:50;;;;;;;0.90;0.70;;;14.90;99.90;;;;;;5035784;28;20427;-80
2021/08/01 02:19:20;;;;;;;1.17;0.80;;;14.80;99.90;;;;;;5035628;28;20443;-79
2021/08/01 02:21:47;;;;;;;1.33;0.67;;;14.80;99.90;;;;;;5035811;28;20467;-81
2021/08/01 02:24:15;;;;;;;1.23;0.67;;;14.90;99.90;;;;;;5035817;28;20458;-81
2021/08/01 02:26:45;;;;;;;1.70;0.77;;;14.90;99.90;;;;;;5036738;28;20462;-82
2021/08/01 02:29:13;;;;;;;0.50;0.50;;;14.90;99.90;;;;;;5037089;28;20438;-82
2021/08/01 02:31:41;;;;;;;0.87;0.80;;;14.90;99.90;;;;;;5035868;28;20872;-83
2021/08/01 02:34:09;;;;;;;1.13;0.80;;;14.90;99.90;;;;;;5037653;28;20446;-82
2021/08/01 02:36:36;;;;;;;0.80;0.73;;;14.90;99.90;;;;;;5036802;28;20446;-82
2021/08/01 02:39:03;;;;;;;0.77;0.77;;;14.90;99.90;;;;;;5037017;28;20557;-82
2021/08/01 02:41:32;;;;;;;0.87;0.53;;;14.90;99.90;;;;;;5036766;28;20470;-83
2021/08/01 02:44:05;;;;;;;1.10;0.80;;;14.90;99.90;;;;;;5036394;28;20453;-83
2021/08/01 02:46:34;;;;;;;1.47;0.73;;;14.90;99.90;;;;;;5036668;28;20435;-83
2021/08/01 02:49:03;;;;;;;3.43;0.70;;;14.90;99.90;;;;;;5035494;28;20447;-83
2021/08/01 02:51:32;;;;;;;0.67;0.67;;;14.90;99.90;;;;;;5035435;28;20493;-83
2021/08/01 02:54:01;;;;;;;1.27;0.90;;;14.90;99.90;;;;;;5035356;28;20478;-83
2021/08/01 02:56:32;;;;;;;0.90;0.90;;;14.90;99.90;;;;;;5035748;28;20450;-83
2021/08/01 02:59:01;;;;;;;0.70;0.67;;;14.80;99.90;;;;;;5035661;28;20435;-83
2021/08/01 03:01:29;;;;;;;0.50;0.50;;;14.90;99.90;;;;;;5035709;28;20467;-83
2021/08/01 03:03:56;;;;;;;2.63;0.73;;;14.90;99.90;;;;;;5035922;28;20450;-84
2021/08/01 03:06:24;;;;;;;2.40;1.00;;;14.90;99.90;;;;;;5035297;28;20438;-83
2021/08/01 03:08:50;;;;;;;0.53;0.53;;;14.90;99.90;;;;;;5036519;28;20442;-83
2021/08/01 03:11:21;;;;;;;2.33;0.60;;;14.80;99.90;;;;;;5036241;28;20494;-82
2021/08/01 03:13:48;;;;;;;0.70;0.53;;;14.80;99.90;;;;;;5034788;28;20447;-81
2021/08/01 03:16:16;;;;;;;1.10;0.50;;;14.80;99.90;;;;;;5034601;28;20454;-81
2021/08/01 03:18:43;;;;;;;1.40;0.87;;;14.80;99.90;;;;;;5034555;28;20446;-81
2021/08/01 03:21:09;;;;;;;1.17;0.70;;;14.70;99.90;;;;;;5034430;28;20470;-81
2021/08/01 03:23:36;;;;;;;0.90;0.63;;;14.70;99.90;;;;;;5034172;28;20973;-81
2021/08/01 03:26:03;;;;;;;0.73;0.53;;;14.70;99.90;;;;;;5034395;28;20459;-82
2021/08/01 03:28:29;;;;;;;1.60;1.00;;;14.70;99.90;;;;;;5034373;28;20435;-81
2021/08/01 03:30:56;;;;;;;0.90;0.80;;;14.70;99.90;;;;;;5033792;28;20848;-81
2021/08/01 03:33:24;;;;;;;1.27;0.80;;;14.70;99.90;;;;;;5034259;28;20454;-81
2021/08/01 03:35:51;;;;;;;1.13;0.80;;;14.70;99.90;;;;;;5034204;28;20451;-81
2021/08/01 03:38:18;;;;;;;0.63;0.63;;;14.70;99.90;;;;;;5033904;28;20457;-81
2021/08/01 03:40:44;;;;;;;0.90;0.90;;;14.80;99.90;;;;;;5034057;28;20465;-81
2021/08/01 03:43:11;;;;;;;0.50;0.50;;;14.70;99.90;;;;;;5034077;28;20458;-81
2021/08/01 03:45:38;;;;;;;0.63;0.63;;;14.80;99.90;;;;;;5034033;28;20469;-81
2021/08/01 03:48:06;;;;;;;1.23;1.00;;;14.70;99.90;;;;;;5033887;28;20923;-81
2021/08/01 03:51:01;;;;;;;0.60;0.50;;;14.70;99.90;;;;;;5033869;28;20489;-81
2021/08/01 03:53:28;;;;;;;0.60;0.60;;;14.60;99.90;;;;;;5031241;28;20473;-81
2021/08/01 03:55:54;;;;;;;1.70;0.83;;;14.60;99.90;;;;;;5033338;28;20475;-81
2021/08/01 03:58:21;;;;;;;0.77;0.77;;;14.60;99.90;;;;;;5033931;28;20450;-81
2021/08/01 04:00:48;;;;;;;0.60;0.47;;;14.60;99.90;;;;;;5033389;28;20817;-81
2021/08/01 04:03:15;;;;;;;1.90;0.93;;;14.60;99.90;;;;;;5033515;28;20439;-81
2021/08/01 04:05:41;;;;;;;0.73;0.73;;;14.60;99.90;;;;;;5033405;28;20949;-82
2021/08/01 04:08:09;;;;;;;0.83;0.80;;;14.60;99.90;;;;;;5033718;28;20442;-81
2021/08/01 04:10:36;;;;;;;1.03;0.87;;;14.60;99.90;;;;;;5033514;28;20490;-81
2021/08/01 04:13:04;;;;;;;0.80;0.70;;;14.50;99.90;;;;;;5033306;28;20827;-81
2021/08/01 04:15:30;;;;;;;1.73;0.80;;;14.50;99.90;;;;;;5033552;28;20450;-81
2021/08/01 04:17:57;;;;;;;0.60;0.50;;;14.50;99.90;;;;;;5033519;28;20459;-81
2021/08/01 04:20:24;;;;;;;0.50;0.50;;;14.50;99.90;;;;;;5033439;28;20470;-81
2021/08/01 04:22:52;;;;;;;0.50;0.50;;;14.50;99.90;;;;;;5033711;28;20461;-82
2021/08/01 04:25:21;;;;;;;0.93;0.70;;;14.50;99.90;;;;;;5034412;28;20442;-83
2021/08/01 04:27:48;;;;;;;0.83;0.83;;;14.40;99.90;;;;;;5034014;28;20454;-83
2021/08/01 04:30:15;;;;;;;0.57;0.50;;;14.40;99.90;;;;;;5033828;28;20466;-83
2021/08/01 04:32:42;;;;;;;0.80;0.60;;;14.40;99.90;;;;;;5034130;28;20450;-82
2021/08/01 04:35:10;;;;;;;0.57;0.57;;;14.40;99.90;;;;;;5034337;28;20466;-83
2021/08/01 04:37:36;;;;;;;0.40;0.40;;;14.40;99.90;;;;;;5033791;28;20445;-82
2021/08/01 04:40:04;;;;;;;0.90;0.70;;;14.40;99.90;;;;;;5033305;28;20461;-82
2021/08/01 04:42:32;;;;;;;0.50;0.50;;;14.40;99.90;;;;;;5033284;28;20443;-82
2021/08/01 04:44:58;;;;;;;0.60;0.60;;;14.50;99.90;;;;;;5033210;28;20457;-81
2021/08/01 04:47:25;;;;;;;0.90;0.73;;;14.50;99.90;;;;;;5033240;28;20443;-81
2021/08/01 04:49:53;;;;;;;1.17;0.50;;;14.40;99.90;;;;;;5033128;28;20454;-82
2021/08/01 04:52:20;;;;;;;1.13;0.80;;;14.40;99.90;;;;;;5036095;28;20522;-81
2021/08/01 04:54:47;;;;;;;0.40;0.40;;;14.30;99.90;;;;;;5036937;28;20473;-81
2021/08/01 04:57:14;;;;;;;0.47;0.47;;;14.30;99.90;;;;;;5037202;28;20462;-81
2021/08/01 04:59:42;;;;;;;0.40;0.40;;;14.40;99.90;;;;;;5037105;28;20813;-81
2021/08/01 05:02:09;;;;;;;1.00;0.73;;;14.40;99.90;;;;;;5036822;28;20971;-81
2021/08/01 05:04:36;;;;;;;1.57;0.80;;;14.40;99.90;;;;;;5036868;28;20430;-81
2021/08/01 05:07:03;;;;;;;0.53;0.40;;;14.40;99.90;;;;;;5036987;28;20451;-82
2021/08/01 05:09:29;;;;;;;1.03;0.50;;;14.40;99.90;;;;;;5036985;28;20457;-82
2021/08/01 05:11:56;;;;;;;0.40;0.40;;;14.50;99.90;;;;;;5036778;28;20533;-82
2021/08/01 05:14:23;;;;;;;0.60;0.50;;;14.50;99.90;;;;;;5036884;28;20451;-82
2021/08/01 05:16:51;;;;;;;2.00;0.63;;;14.40;99.90;;;;;;5036537;28;20451;-82
2021/08/01 05:19:18;;;;;;;0.50;0.50;;;14.50;99.90;;;;;;5036802;28;20453;-82
2021/08/01 05:21:44;;;;;;;0.50;0.50;;;14.50;99.90;;;;;;5036689;28;20466;-82
2021/08/01 05:24:11;;;;;;;1.63;1.23;;;14.50;99.90;;;;;;5036714;28;20454;-82
2021/08/01 05:26:38;;;;;;;0.70;0.70;;;14.50;99.90;;;;;;5036650;28;20484;-82
2021/08/01 05:29:06;;;;;;;1.33;0.60;;;14.60;99.90;;;;;;5036602;28;20455;-82
2021/08/01 05:31:33;;;;;;;0.50;0.43;;;14.70;99.90;;;;;;5036426;28;20581;-82
2021/08/01 05:34:01;;;;;;;0.60;0.60;;;14.70;99.90;;;;;;5036543;28;20455;-82
2021/08/01 05:36:30;;;;;;;1.63;0.70;;;14.70;99.90;;;;;;5036497;28;20807;-82
2021/08/01 05:38:56;;;;;;;0.70;0.60;;;14.70;99.90;;;;;;5036451;28;20462;-82
2021/08/01 05:41:24;;;;;;;1.03;0.80;;;14.80;99.90;;;;;;5036207;28;20470;-82
2021/08/01 05:43:51;;;;;;;0.90;0.83;;;14.80;99.90;;;;;;5036318;28;20508;-83
2021/08/01 05:46:18;;;;;;;1.03;0.57;;;14.70;99.90;;;;;;5036477;28;20446;-82
2021/08/01 05:48:45;;;;;;;0.80;0.80;;;14.70;99.90;;;;;;5035938;28;20459;-83
2021/08/01 05:51:13;;;;;;;0.80;0.60;;;14.60;99.90;;;;;;5036210;28;20493;-82
2021/08/01 05:53:39;;;;;;;0.93;0.80;;;14.70;99.90;;;;;;5036420;28;20457;-81
2021/08/01 05:56:10;;;;;;;0.73;0.73;;;14.70;99.90;;;;;;5035934;28;20482;-81
2021/08/01 05:58:37;;;;;;;0.40;0.40;;;14.70;99.90;;;;;;5036095;28;20446;-81
2021/08/01 06:01:08;;;;;;;0.90;0.67;;;14.70;99.90;;;;;;5035653;28;20462;-81
2021/08/01 06:03:35;;;;;;;0.50;0.50;;;14.70;99.90;;;;;;5035430;28;20450;-81
2021/08/01 06:06:10;;;;;;;0.70;0.63;;;14.80;99.90;;;;;;5035663;28;20434;-81
2021/08/01 06:08:41;;;;;;;0.83;0.60;;;14.70;99.90;;;;;;5035575;28;20456;-81
2021/08/01 06:11:08;;;;;;;0.70;0.60;;;14.80;99.90;;;;;;5035444;28;20488;-81
2021/08/01 06:13:36;;;;;;;1.03;0.70;;;14.80;99.90;;;;;;5035463;28;20942;-81
2021/08/01 06:16:03;;;;;;;0.60;0.50;;;14.80;99.90;;;;;;5035477;28;20529;-81
2021/08/01 06:18:30;;;;;;;1.83;0.83;;;14.80;99.90;;;;;;5035729;28;20482;-81
2021/08/01 06:21:04;;;;;;;0.87;0.53;;;14.90;99.90;;;;;;5035179;28;20889;-80
2021/08/01 06:23:45;;;;;;;0.57;0.50;;;14.90;99.90;;;;;;5035283;28;20953;-80
2021/08/01 06:26:16;;;;;;;2.30;0.80;;;15.00;99.90;;;;;;5035628;28;20522;-80
2021/08/01 06:28:43;;;;;;;0.87;0.50;;;15.00;99.90;;;;;;5035549;28;20427;-80
2021/08/01 06:31:12;;;;;;;0.60;0.60;;;15.00;99.90;;;;;;5035504;28;20545;-80
2021/08/01 06:33:39;;;;;;;1.80;0.70;;;15.00;99.90;;;;;;5035120;28;20470;-80
2021/08/01 06:36:08;;;;;;;0.60;0.60;;;15.10;99.90;;;;;;5034981;28;20439;-80
2021/08/01 06:38:52;;;;;;;0.53;0.53;;;15.10;99.90;;;;;;5035017;28;21006;-81
2021/08/01 06:41:24;;;;;;;1.90;0.67;;;15.20;99.90;;;;;;5054964;22;20493;-80
2021/08/01 06:44:04;;;;;;;;;;;;;;;;;;;;;
2021/08/01 06:46:40;;;;;;;0.70;0.70;;;15.20;99.90;;;;;;5054306;28;20487;-80
2021/08/01 06:50:14;;;;;;;0.70;0.67;;;15.30;99.90;;;;;;5054688;28;20437;-80
2021/08/01 06:52:46;;;;;;;0.60;0.60;;;15.30;99.90;;;;;;4951828;29;21010;-80
2021/08/01 07:06:23;;;;;;;0.60;0.50;;;15.60;99.90;;;;;;4865679;29;20840;-80
2021/08/01 07:09:40;;;;;;;;;;;;;;;;;;;;;
2021/08/01 07:22:04;;;;;;;0.73;0.73;;;15.70;99.90;;;;;;5190314;22;20489;-80
2021/08/01 07:25:30;;;;;;;4.37;0.60;;;15.70;99.90;;;;;;4989798;28;20568;-80
2021/08/01 07:56:23;;;;;;;;;;;;;;;;;;;;;
2021/08/01 08:07:13;;;;;;;0.83;0.57;;;16.00;99.90;;;;;;5090629;28;20464;-79
2021/08/01 08:09:40;;;;;;;0.67;0.67;;;16.00;99.90;;;;;;5093810;28;20450;-81
2021/08/01 08:12:27;;;;;;;0.93;0.60;;;16.00;99.90;;;;;;5192993;22;20489;-80
2021/08/01 08:14:56;;;;;;;1.17;1.10;;;16.00;99.90;;;;;;5027117;28;20458;-81
2021/08/01 08:17:22;;;;;;;0.50;0.50;;;16.00;99.90;;;;;;5033248;28;20453;-80
2021/08/01 08:19:58;;;;;;;2.40;0.97;;;16.00;99.90;;;;;;5033455;28;20451;-80
2021/08/01 08:22:44;;;;;;;0.53;0.53;;;16.00;99.90;;;;;;5033144;28;20521;-80
2021/08/01 08:25:12;;;;;;;0.70;0.60;;;16.00;99.90;;;;;;5033253;28;20494;-80
2021/08/01 08:27:41;;;;;;;0.80;0.57;;;16.00;99.90;;;;;;5033291;28;20443;-81
2021/08/01 08:33:18;;;;;;;1.10;1.00;;;16.00;99.90;;;;;;5023245;28;20481;-79
2021/08/01 08:35:45;;;;;;;0.60;0.60;;;16.00;99.90;;;;;;5033043;28;20439;-81
2021/08/01 08:38:36;;;;;;;0.90;0.90;;;16.00;99.90;;;;;;5033387;28;20792;-80
2021/08/01 08:41:12;;;;;;;0.87;0.70;;;16.00;99.90;;;;;;5025431;28;20474;-80
2021/08/01 08:43:50;;;;;;;1.57;0.73;;;16.00;99.90;;;;;;5032998;28;20921;-80
2021/08/01 08:46:29;;;;;;;0.60;0.60;;;15.90;99.90;;;;;;5033306;28;20530;-80
2021/08/01 08:48:57;;;;;;;2.00;0.67;;;15.90;99.90;;;;;;5033160;28;20450;-80
2021/08/01 08:51:26;;;;;;;0.60;0.60;;;15.90;99.90;;;;;;5033042;28;20497;-82
2021/08/01 08:53:54;;;;;;;0.83;0.43;;;16.00;99.90;;;;;;5032896;28;20450;-81
2021/08/01 08:56:24;;;;;;;1.80;1.27;;;16.00;99.90;;;;;;5033399;28;20450;-79
2021/08/01 08:58:53;;;;;;;0.73;0.57;;;16.00;99.90;;;;;;5033319;28;20447;-81
2021/08/01 09:01:21;;;;;;;0.77;0.77;;;16.00;99.90;;;;;;5033006;28;20474;-81
2021/08/01 09:03:49;;;;;;;0.77;0.77;;;16.00;99.90;;;;;;5033024;28;20811;-81
2021/08/01 09:06:16;;;;;;;0.50;0.50;;;16.00;99.90;;;;;;5033046;28;20457;-81
2021/08/01 09:08:42;;;;;;;0.87;0.50;;;16.00;99.90;;;;;;5033020;28;20465;-81
2021/08/01 09:11:09;;;;;;;2.73;0.60;;;16.00;99.90;;;;;;5032740;28;20470;-81
2021/08/01 09:13:46;;;;;;;0.53;0.50;;;16.10;99.90;;;;;;5032555;28;20866;-81
2021/08/01 09:16:14;;;;;;;0.57;0.57;;;16.10;99.90;;;;;;5032987;28;20442;-81
2021/08/01 09:18:42;;;;;;;0.50;0.40;;;16.10;99.90;;;;;;5032745;28;20412;-81
2021/08/01 09:21:41;;;;;;;0.90;0.70;;;16.20;99.90;;;;;;5049825;22;20573;-81
2021/08/01 09:25:13;;;;;;;1.30;0.70;;;16.30;99.90;;;;;;5052509;28;20857;-81
2021/08/01 09:28:21;;;;;;;1.00;0.80;;;16.40;99.90;;;;;;4974344;28;20478;-82
2021/08/01 09:49:17;;;;;;;1.27;0.80;;;16.30;99.90;;;;;;4803883;29;20949;-81
2021/08/01 09:52:36;;;;;;;1.50;1.00;;;16.30;99.90;;;;;;4797343;29;20527;-81
2021/08/01 10:09:18;;;;;;;1.50;0.90;;;16.90;99.90;;;;;;4929922;29;20445;-81
2021/08/01 10:12:17;;;;;;;0.77;0.77;;;17.10;99.90;;;;;;5032713;22;20497;-81
2021/08/01 10:14:51;;;;;;;1.23;0.87;;;17.20;99.90;;;;;;4955472;29;20458;-81
2021/08/01 10:20:45;;;;;;;1.27;1.17;;;17.30;99.90;;;;;;4954197;28;20458;-81
2021/08/01 10:23:46;;;;;;;1.40;1.30;;;17.30;99.90;;;;;;4955341;29;20578;-81
2021/08/01 10:27:28;;;;;;;0.70;0.70;;;17.40;99.90;;;;;;4954676;29;20442;-82
2021/08/01 10:29:58;;;;;;;0.90;0.70;;;17.30;99.90;;;;;;4982844;28;20509;-81
2021/08/01 10:32:28;;;;;;;2.27;1.57;;;17.50;99.90;;;;;;5035693;28;21048;-81
2021/08/01 10:35:00;;;;;;;1.57;1.00;;;17.60;99.90;;;;;;5035471;28;20443;-81
2021/08/01 10:37:33;;;;;;;1.57;1.33;;;17.80;99.90;;;;;;5035399;28;20516;-82
2021/08/01 10:40:03;;;;;;;1.70;1.37;;;17.80;99.90;;;;;;5034986;28;20423;-81
2021/08/01 10:42:32;;;;;;;1.13;0.90;;;17.80;99.90;;;;;;5035365;28;20430;-81
2021/08/01 10:45:00;;;;;;;1.33;1.23;;;17.90;99.90;;;;;;5035293;28;20439;-81
2021/08/01 10:47:27;;;;;;;2.47;1.33;;;17.90;99.90;;;;;;5035258;28;20470;-81
2021/08/01 10:49:55;;;;;;;1.17;0.90;;;17.90;99.90;;;;;;5035053;28;20435;-82
2021/08/01 10:52:29;;;;;;;0.90;0.70;;;18.00;99.90;;;;;;5035064;28;20474;-82
2021/08/01 10:54:56;;;;;;;2.70;1.40;;;18.00;99.90;;;;;;5034823;28;20446;-81
2021/08/01 10:57:25;;;;;;;2.10;1.43;;;17.90;99.90;;;;;;5034782;28;20442;-81
2021/08/01 11:00:05;;;;;;;0.90;0.90;;;18.00;99.90;;;;;;5035143;28;20788;-81
2021/08/01 11:02:33;;;;;;;1.30;1.20;;;18.00;99.90;;;;;;5034629;28;20908;-81
2021/08/01 11:05:38;;;;;;;1.00;0.90;;;18.10;99.90;;;;;;5034702;28;20478;-82
2021/08/01 11:08:06;;;;;;;1.87;1.00;;;18.10;99.90;;;;;;5034825;28;20772;-82
2021/08/01 11:10:33;;;;;;;1.20;0.80;;;18.20;99.90;;;;;;5034463;28;20494;-80
2021/08/01 11:13:23;;;;;;;0.90;0.90;;;18.20;99.90;;;;;;5034645;28;20482;-79
2021/08/01 11:15:50;;;;;;;0.70;0.70;;;18.30;99.90;;;;;;5034205;28;20461;-81
2021/08/01 11:18:30;;;;;;;1.47;0.90;;;18.40;99.90;;;;;;5034658;28;20446;-80
2021/08/01 11:20:59;;;;;;;1.07;0.97;;;18.50;99.90;;;;;;5034523;28;20475;-81
2021/08/01 11:23:59;;;;;;;3.60;1.40;;;18.60;99.90;;;;;;5034577;28;20474;-81
2021/08/01 11:26:27;;;;;;;1.90;1.17;;;18.80;99.90;;;;;;5034048;28;20447;-81
2021/08/01 11:29:10;;;;;;;1.27;0.93;;;19.00;99.90;;;;;;5034138;28;20431;-81
2021/08/01 11:31:38;;;;;;;1.53;0.83;;;19.10;99.90;;;;;;5034324;28;20830;-81
2021/08/01 11:34:21;;;;;;;0.87;0.87;;;19.20;99.90;;;;;;5034305;28;20466;-82
2021/08/01 11:36:48;;;;;;;1.40;1.10;;;19.20;99.90;;;;;;5031798;28;20809;-81
2021/08/01 11:39:15;;;;;;;2.00;1.23;;;19.20;99.90;;;;;;5034410;28;20438;-81
2021/08/01 11:41:44;;;;;;;1.30;1.00;;;19.20;99.90;;;;;;5034159;28;20473;-81
2021/08/01 11:44:18;;;;;;;0.83;0.83;;;19.10;99.90;;;;;;5034155;28;20432;-81
2021/08/01 11:47:03;;;;;;;0.97;0.87;;;19.10;99.90;;;;;;5034164;28;20521;-81
2021/08/01 11:49:33;;;;;;;0.83;0.83;;;19.00;99.90;;;;;;5032617;28;20480;-81
2021/08/01 11:52:01;;;;;;;1.07;1.07;;;19.10;99.90;;;;;;5033949;28;20482;-81
2021/08/01 11:54:29;;;;;;;1.27;1.00;;;19.10;99.90;;;;;;5033892;28;20474;-81
2021/08/01 11:57:00;;;;;;;1.43;0.90;;;19.20;99.90;;;;;;5033944;28;20798;-81
2021/08/01 11:59:29;;;;;;;1.00;1.00;;;19.20;99.90;;;;;;5033579;28;20438;-81
2021/08/01 12:01:57;;;;;;;1.20;1.10;;;19.30;99.90;;;;;;5033439;28;20462;-81
2021/08/01 12:04:24;;;;;;;1.27;0.90;;;19.30;99.90;;;;;;5034050;28;20431;-81
2021/08/01 12:06:53;;;;;;;1.10;1.00;;;19.40;99.90;;;;;;5033916;28;20435;-81
2021/08/01 12:09:21;;;;;;;0.70;0.70;;;19.50;99.90;;;;;;5033741;28;20793;-81
2021/08/01 12:11:51;;;;;;;1.20;1.10;;;19.50;99.90;;;;;;5033227;28;20494;-81
2021/08/01 12:14:18;;;;;;;0.70;0.70;;;19.60;99.90;;;;;;5033655;28;20466;-81
2021/08/01 12:17:01;;;;;;;1.43;0.80;;;19.60;99.90;;;;;;5033647;28;20440;-82
2021/08/01 12:19:30;;;;;;;0.70;0.60;;;19.50;99.90;;;;;;5034292;28;20538;-81
2021/08/01 12:21:59;;;;;;;1.10;0.87;;;19.40;99.90;;;;;;5033448;28;20465;-81
2021/08/01 12:24:32;;;;;;;1.43;1.33;;;19.20;99.90;;;;;;5033288;28;20438;-81
2021/08/01 12:27:01;;;;;;;0.70;0.70;;;19.10;99.90;;;;;;5033537;28;20435;-81
2021/08/01 12:29:29;;;;;;;0.90;0.90;;;19.00;99.90;;;;;;5033242;28;20909;-81
2021/08/01 12:32:15;;;;;;;1.17;0.70;;;19.00;99.90;;;;;;5033366;28;21112;-81
2021/08/01 12:34:42;;;;;;;0.90;0.60;;;19.00;99.90;;;;;;5034108;28;20489;-82
2021/08/01 12:37:09;;;;;;;1.47;0.63;;;18.90;99.90;;;;;;5033036;28;20423;-82
2021/08/01 12:39:43;;;;;;;0.93;0.80;;;18.90;99.90;;;;;;5033059;28;20910;-82
2021/08/01 12:42:11;;;;;;;0.60;0.60;;;19.10;99.90;;;;;;5033382;28;20430;-82
2021/08/01 12:44:54;;;;;;;1.03;0.90;;;19.20;99.90;;;;;;5033674;28;20457;-81
2021/08/01 12:47:22;;;;;;;0.90;0.77;;;19.40;99.90;;;;;;5033318;28;20423;-81
2021/08/01 12:49:50;;;;;;;3.17;1.70;;;19.60;99.90;;;;;;5033249;28;20427;-81
2021/08/01 12:52:22;;;;;;;0.70;0.70;;;19.60;99.90;;;;;;5033259;28;20430;-82
2021/08/01 12:54:50;;;;;;;0.60;0.60;;;19.60;99.90;;;;;;5033139;28;20493;-82
2021/08/01 12:57:16;;;;;;;0.50;0.50;;;19.60;99.90;;;;;;5033165;28;20431;-82
2021/08/01 13:00:07;;;;;;;1.17;0.90;;;19.50;99.90;;;;;;5033197;28;20818;-82
2021/08/01 13:02:35;;;;;;;0.70;0.70;;;19.40;99.90;;;;;;5032886;28;20411;-82
2021/08/01 13:05:02;;;;;;;0.63;0.60;;;19.20;99.90;;;;;;5033053;28;20431;-82
2021/08/01 13:07:29;;;;;;;1.80;1.20;;;19.20;99.90;;;;;;5033064;28;20435;-82
2021/08/01 13:10:03;;;;;;;0.80;0.70;;;19.20;99.90;;;;;;5032690;28;20471;-83
2021/08/01 13:12:30;;;;;;;0.90;0.80;;;19.30;99.90;;;;;;5034543;28;20820;-82
2021/08/01 13:14:57;;;;;;;3.00;0.97;;;19.30;99.90;;;;;;5036916;28;20463;-82
2021/08/01 13:17:46;;;;;;;0.57;0.57;;;19.40;99.90;;;;;;5036565;28;20443;-82
2021/08/01 13:20:33;;;;;;;0.87;0.83;;;19.40;99.90;;;;;;5030545;28;21013;-82
2021/08/01 13:23:02;;;;;;;1.03;0.80;;;19.40;99.90;;;;;;5036494;28;20419;-82
2021/08/01 13:25:34;;;;;;;0.70;0.70;;;19.40;99.90;;;;;;5036778;28;20433;-82
2021/08/01 13:28:01;;;;;;;0.60;0.60;;;19.40;99.90;;;;;;5036419;28;20438;-82
2021/08/01 13:30:28;;;;;;;2.50;0.50;;;19.40;99.90;;;;;;5036307;28;20466;-83
2021/08/01 13:32:56;;;;;;;0.70;0.70;;;19.40;99.90;;;;;;5036753;28;20427;-82
2021/08/01 13:35:25;;;;;;;0.97;0.87;;;19.30;99.90;;;;;;5036601;28;20442;-83
2021/08/01 13:38:02;;;;;;;0.50;0.50;;;19.30;99.90;;;;;;5036500;28;20441;-82
2021/08/01 13:40:31;;;;;;;0.90;0.80;;;19.20;99.90;;;;;;5036430;28;20470;-82
2021/08/01 13:42:58;;;;;;;0.90;0.73;;;19.00;99.90;;;;;;5036473;28;20431;-82
2021/08/01 13:45:27;;;;;;;1.00;0.87;;;19.00;99.90;;;;;;5036669;28;20430;-82
2021/08/01 13:47:56;;;;;;;1.80;1.10;;;18.90;99.90;;;;;;5036167;28;20431;-82
2021/08/01 13:50:25;;;;;;;0.70;0.70;;;18.90;99.90;;;;;;5036242;28;20477;-82
2021/08/01 13:52:53;;;;;;;1.10;0.70;;;18.90;99.90;;;;;;5036245;28;20431;-82
2021/08/01 13:55:22;;;;;;;1.10;1.00;;;18.90;99.90;;;;;;5036251;28;20438;-82
2021/08/01 13:57:49;;;;;;;0.70;0.70;;;19.00;99.90;;;;;;5035896;28;20956;-82
2021/08/01 14:00:16;;;;;;;4.30;0.90;;;19.20;99.90;;;;;;5036029;28;20474;-81
2021/08/01 14:02:43;;;;;;;1.10;0.70;;;19.30;99.90;;;;;;5035830;28;20415;-82
2021/08/01 14:05:12;;;;;;;0.43;0.40;;;19.50;99.90;;;;;;5036313;28;20431;-82
2021/08/01 14:07:38;;;;;;;0.70;0.50;;;19.60;99.90;;;;;;5035637;28;20441;-82
2021/08/01 14:10:06;;;;;;;1.33;0.47;;;19.70;99.90;;;;;;5035468;28;20970;-82
2021/08/01 14:12:34;;;;;;;0.40;0.30;;;19.70;99.90;;;;;;5035926;28;20423;-82
2021/08/01 14:15:05;;;;;;;0.40;0.40;;;19.60;99.90;;;;;;5036006;28;20473;-82
2021/08/01 14:17:32;;;;;;;0.40;0.40;;;19.30;99.90;;;;;;5035570;28;20485;-82
2021/08/01 14:19:58;;;;;;;0.30;0.30;;;19.20;99.90;;;;;;5035714;28;20431;-82
2021/08/01 14:22:26;;;;;;;0.53;0.53;;;19.20;99.90;;;;;;5035544;28;20427;-82
2021/08/01 14:24:53;;;;;;;0.97;0.40;;;19.10;99.90;;;;;;5035280;28;20412;-82
2021/08/01 14:27:23;;;;;;;0.70;0.50;;;18.90;99.90;;;;;;5035635;28;20435;-82
2021/08/01 14:29:51;;;;;;;0.40;0.33;;;18.80;99.90;;;;;;5035271;28;20422;-82
2021/08/01 14:32:21;;;;;;;0.60;0.40;;;18.50;99.90;;;;;;5035509;28;20442;-82
2021/08/01 14:34:48;;;;;;;0.60;0.30;;;18.30;99.90;;;;;;5035116;28;20974;-82
2021/08/01 14:37:15;;;;;;;0.50;0.50;;;18.20;99.90;;;;;;5035582;28;20442;-83
2021/08/01 14:39:48;;;;;;;0.30;0.30;;;18.10;99.90;;;;;;5035455;28;20445;-84
2021/08/01 14:42:17;;;;;;;0.47;0.47;;;18.00;99.90;;;;;;5035453;28;20435;-82
2021/08/01 14:44:45;;;;;;;0.60;0.60;;;17.90;99.90;;;;;;5035386;28;20505;-82
2021/08/01 14:47:19;;;;;;;0.40;0.40;;;17.80;99.90;;;;;;5034935;28;20919;-82
2021/08/01 14:49:50;;;;;;;0.50;0.50;;;17.70;99.90;;;;;;5035101;28;20435;-82